createdAt,value
2022-09-23T00:01:07.582Z,94123.78
2022-09-23T00:03:35.912Z,94106.94
2022-09-23T00:06:05.408Z,94127.31
2022-09-23T00:08:32.540Z,94120.34
2022-09-23T00:11:05.980Z,94113.94
2022-09-23T00:13:33.523Z,94090.63
2022-09-23T00:16:08.237Z,94089.31
2022-09-23T00:18:34.782Z,94120.47
2022-09-23T00:21:05.523Z,94091.53
2022-09-23T00:23:32.908Z,94117.78
2022-09-23T00:26:01.261Z,94109.69
2022-09-23T00:28:28.146Z,94120.31
2022-09-23T00:30:54.588Z,94072.69
2022-09-23T00:33:20.984Z,94097.97
2022-09-23T00:35:47.758Z,94080.78
2022-09-23T00:38:14.422Z,94110.50
2022-09-23T00:40:46.095Z,94083.72
2022-09-23T00:43:14.867Z,94080.78
2022-09-23T00:45:47.183Z,94094.81
2022-09-23T00:48:20.367Z,94064.13
2022-09-23T00:50:54.363Z,94081.78
2022-09-23T00:53:23.761Z,94078.84
2022-09-23T00:55:54.486Z,94069.94
2022-09-23T00:58:26.705Z,94092.53
2022-09-23T01:00:54.335Z,94070.75
2022-09-23T01:03:22.726Z,94067.53
2022-09-23T01:05:50.112Z,94090.22
2022-09-23T01:08:16.700Z,94068.81
2022-09-23T01:11:20.697Z,94082.63
2022-09-23T01:13:56.422Z,94069.44
2022-09-23T01:16:37.514Z,94053.22
2022-09-23T01:19:36.213Z,94074.38
2022-09-23T01:22:11.789Z,94073.28
2022-09-23T01:24:44.334Z,94068.34
2022-09-23T01:27:51.774Z,94058.06
2022-09-23T01:30:44.260Z,94065.78
2022-09-23T01:33:34.590Z,94071.53
2022-09-23T01:36:29.871Z,94046.91
2022-09-23T01:39:00.360Z,94034.94
2022-09-23T01:41:51.687Z,94034.28
2022-09-23T01:44:27.274Z,94059.59
2022-09-23T01:47:14.960Z,94040.41
2022-09-23T01:49:59.065Z,94054.72
2022-09-23T01:52:32.900Z,94053.38
2022-09-23T01:55:25.534Z,94047.63
2022-09-23T01:58:04.857Z,94050.44
2022-09-23T02:00:37.533Z,94019.75
2022-09-23T02:03:17.264Z,94017.06
2022-09-23T02:05:58.635Z,94031.53
2022-09-23T02:08:35.679Z,94051.66
2022-09-23T02:11:15.311Z,94051.59
2022-09-23T02:13:56.001Z,94042.47
2022-09-23T02:16:31.859Z,94048.50
2022-09-23T02:19:06.879Z,94050.44
2022-09-23T02:21:38.300Z,94022.56
2022-09-23T02:24:12.065Z,94048.66
2022-09-23T02:26:45.725Z,94029.78
2022-09-23T02:29:29.406Z,94017.09
2022-09-23T02:32:14.118Z,94043.34
2022-09-23T02:35:00.443Z,94046.16
2022-09-23T02:37:32.799Z,94034.88
2022-09-23T02:40:22.826Z,94037.75
2022-09-23T02:42:53.378Z,94038.19
2022-09-23T02:45:19.998Z,94016.38
2022-09-23T02:47:53.032Z,94048.44
2022-09-23T02:50:19.950Z,94016.59
2022-09-23T02:52:46.860Z,94014.91
2022-09-23T02:55:17.433Z,94044.84
2022-09-23T02:57:44.865Z,94025.38
2022-09-23T03:00:12.378Z,94013.81
2022-09-23T03:03:02.494Z,94042.19
2022-09-23T03:05:33.353Z,94038.19
2022-09-23T03:08:30.322Z,94038.97
2022-09-23T03:11:04.314Z,94034.81
2022-09-23T03:13:51.021Z,94037.09
2022-09-23T03:16:30.030Z,94030.66
2022-09-23T03:19:35.585Z,94033.81
2022-09-23T03:22:05.750Z,94036.97
2022-09-23T03:24:34.559Z,94036.00
2022-09-23T03:27:05.274Z,94016.84
2022-09-23T03:29:35.251Z,94005.47
2022-09-23T03:32:02.040Z,94004.81
2022-09-23T03:34:31.722Z,94031.72
2022-09-23T03:37:11.211Z,94025.22
2022-09-23T03:39:44.510Z,94032.69
2022-09-23T03:42:18.897Z,94031.03
2022-09-23T03:45:09.699Z,94030.97
2022-09-23T03:47:36.358Z,94017.13
2022-09-23T03:50:02.899Z,93997.94
2022-09-23T03:52:29.459Z,94001.34
2022-09-23T03:54:55.992Z,94011.22
2022-09-23T03:57:23.069Z,94019.13
2022-09-23T03:59:53.059Z,93998.53
2022-09-23T04:02:20.264Z,94023.84
2022-09-23T04:04:47.177Z,94010.31
2022-09-23T04:07:14.291Z,94016.53
2022-09-23T04:09:41.153Z,94015.56
2022-09-23T04:12:07.770Z,94012.84
2022-09-23T04:14:34.316Z,94005.22
2022-09-23T04:17:00.724Z,94008.25
2022-09-23T04:19:27.139Z,93988.50
2022-09-23T04:21:53.562Z,94030.31
2022-09-23T04:24:27.406Z,94010.19
2022-09-23T04:26:55.497Z,94025.44
2022-09-23T04:29:22.827Z,94005.66
2022-09-23T04:31:49.720Z,94004.00
2022-09-23T04:34:17.406Z,94004.56
2022-09-23T04:36:45.213Z,94030.81
2022-09-23T04:39:12.579Z,94033.03
2022-09-23T04:41:39.007Z,94022.34
2022-09-23T04:44:05.585Z,94031.38
2022-09-23T04:46:31.986Z,93979.38
2022-09-23T04:48:58.564Z,93973.28
2022-09-23T04:51:27.011Z,94010.28
2022-09-23T04:53:54.961Z,94007.06
2022-09-23T04:56:28.015Z,94030.44
2022-09-23T04:58:54.637Z,94032.78
2022-09-23T05:01:27.128Z,94030.28
2022-09-23T05:03:57.802Z,94035.69
2022-09-23T05:06:25.077Z,94035.50
2022-09-23T05:08:53.958Z,94011.56
2022-09-23T05:11:21.105Z,94045.53
2022-09-23T05:13:49.064Z,94034.94
2022-09-23T05:16:16.294Z,94030.53
2022-09-23T05:18:43.900Z,94043.56
2022-09-23T05:21:12.170Z,94015.75
2022-09-23T05:23:41.895Z,94043.13
2022-09-23T05:26:11.142Z,94016.81
2022-09-23T05:28:39.395Z,94022.41
2022-09-23T05:31:10.034Z,94042.19
2022-09-23T05:33:37.023Z,93996.75
2022-09-23T05:36:04.692Z,94033.47
2022-09-23T05:38:32.073Z,94027.00
2022-09-23T05:41:06.226Z,94035.63
2022-09-23T05:43:33.167Z,94037.97
2022-09-23T05:46:08.602Z,94035.63
2022-09-23T05:48:36.397Z,94014.91
2022-09-23T05:51:03.935Z,94027.38
2022-09-23T05:53:30.831Z,94020.56
2022-09-23T05:55:57.994Z,94040.94
2022-09-23T05:58:25.309Z,94041.31
2022-09-23T06:00:52.046Z,94005.22
2022-09-23T06:03:20.412Z,94045.34
2022-09-23T06:05:48.392Z,94036.69
2022-09-23T06:08:14.971Z,94016.63
2022-09-23T06:10:43.720Z,94041.97
2022-09-23T06:13:10.989Z,94021.91
2022-09-23T06:15:38.297Z,94049.69
2022-09-23T06:18:05.636Z,94005.50
2022-09-23T06:20:51.445Z,94041.88
2022-09-23T06:23:17.839Z,94024.69
2022-09-23T06:25:44.206Z,94013.38
2022-09-23T06:28:12.084Z,94040.03
2022-09-23T06:30:39.783Z,94019.16
2022-09-23T06:33:06.211Z,94020.34
2022-09-23T06:35:33.221Z,94006.44
2022-09-23T06:38:03.532Z,94018.75
2022-09-23T06:40:31.247Z,93992.59
2022-09-23T06:42:59.689Z,94019.81
2022-09-23T06:45:27.139Z,94020.16
2022-09-23T06:47:57.925Z,94010.81
2022-09-23T06:50:28.039Z,94002.69
2022-09-23T06:52:56.188Z,94034.63
2022-09-23T06:55:24.612Z,94020.56
2022-09-23T06:57:51.360Z,94037.38
2022-09-23T07:00:29.179Z,94024.78
2022-09-23T07:02:55.611Z,94015.34
2022-09-23T07:05:22.370Z,94034.81
2022-09-23T07:07:49.005Z,94042.53
2022-09-23T07:10:15.683Z,94033.09
2022-09-23T07:12:42.093Z,94013.31
2022-09-23T07:15:09.748Z,94030.94
2022-09-23T07:17:36.256Z,94019.03
2022-09-23T07:20:03.404Z,94052.22
2022-09-23T07:22:29.773Z,94019.97
2022-09-23T07:24:56.136Z,94018.41
2022-09-23T07:27:24.353Z,94051.09
2022-09-23T07:29:51.999Z,94050.84
2022-09-23T07:32:19.974Z,94017.06
2022-09-23T07:34:47.258Z,94037.44
2022-09-23T07:37:15.075Z,94047.41
2022-09-23T07:39:41.894Z,94038.38
2022-09-23T07:42:08.457Z,94047.25
2022-09-23T07:44:35.536Z,94056.38
2022-09-23T07:47:01.934Z,94070.38
2022-09-23T07:49:28.334Z,94048.63
2022-09-23T07:51:55.043Z,94037.53
2022-09-23T07:54:21.812Z,94046.69
2022-09-23T07:56:48.213Z,94048.03
2022-09-23T07:59:18.086Z,94044.81
2022-09-23T08:01:48.149Z,94055.63
2022-09-23T08:04:18.173Z,94055.94
2022-09-23T08:06:46.723Z,94039.13
2022-09-23T08:09:14.087Z,94061.16
2022-09-23T08:11:41.802Z,94025.84
2022-09-23T08:14:09.583Z,94027.56
2022-09-23T08:16:36.055Z,94037.41
2022-09-23T08:19:03.104Z,94050.91
2022-09-23T08:21:29.851Z,94016.66
2022-09-23T08:23:56.221Z,94054.91
2022-09-23T08:26:22.752Z,94020.66
2022-09-23T08:28:50.214Z,94020.09
2022-09-23T08:31:16.662Z,94013.50
2022-09-23T08:33:43.159Z,94020.00
2022-09-23T08:36:09.575Z,94025.75
2022-09-23T08:38:35.995Z,94044.50
2022-09-23T08:41:20.491Z,94021.41
2022-09-23T08:43:51.269Z,94033.91
2022-09-23T08:46:28.415Z,94019.00
2022-09-23T08:48:55.654Z,94029.16
2022-09-23T08:51:46.319Z,94040.44
2022-09-23T08:54:14.049Z,94042.06
2022-09-23T08:56:44.499Z,94022.72
2022-09-23T08:59:13.823Z,94033.59
2022-09-23T09:01:44.707Z,94036.41
2022-09-23T09:04:19.095Z,94014.03
2022-09-23T09:06:54.101Z,94041.19
2022-09-23T09:09:30.424Z,94035.47
2022-09-23T09:12:04.710Z,94012.47
2022-09-23T09:14:43.392Z,94012.88
2022-09-23T09:17:17.763Z,93981.81
2022-09-23T09:20:03.317Z,94028.84
2022-09-23T09:23:02.675Z,94021.84
2022-09-23T09:25:44.857Z,94014.13
2022-09-23T09:28:35.701Z,94017.03
2022-09-23T09:31:24.132Z,93990.78
2022-09-23T09:34:05.513Z,93992.13
2022-09-23T09:36:40.246Z,93979.91
2022-09-23T09:39:12.147Z,93979.19
2022-09-23T09:41:41.822Z,93986.84
2022-09-23T09:44:31.516Z,94001.63
2022-09-23T09:47:15.042Z,94001.78
2022-09-23T09:49:49.029Z,93998.03
2022-09-23T09:52:29.785Z,93985.19
2022-09-23T09:55:17.715Z,93964.25
2022-09-23T09:57:48.536Z,93966.78
2022-09-23T10:00:18.860Z,93983.41
2022-09-23T10:02:46.467Z,93960.50
2022-09-23T10:05:26.927Z,93963.53
2022-09-23T10:07:54.103Z,93957.81
2022-09-23T10:10:33.139Z,93977.53
2022-09-23T10:13:15.431Z,93962.09
2022-09-23T10:15:45.145Z,93968.78
2022-09-23T10:18:25.009Z,93960.25
2022-09-23T10:20:51.858Z,93956.06
2022-09-23T10:23:24.462Z,93941.31
2022-09-23T10:26:00.718Z,93968.28
2022-09-23T10:28:41.459Z,93966.63
2022-09-23T10:31:11.397Z,93948.00
2022-09-23T10:33:50.258Z,93959.56
2022-09-23T10:36:17.914Z,93937.72
2022-09-23T10:38:44.875Z,93960.84
2022-09-23T10:41:43.981Z,93962.75
2022-09-23T10:44:55.140Z,93964.41
2022-09-23T10:47:36.896Z,93962.06
2022-09-23T10:50:40.374Z,93956.88
2022-09-23T10:53:49.514Z,93958.16
2022-09-23T10:56:21.465Z,93944.81
2022-09-23T10:59:10.797Z,93957.84
2022-09-23T11:01:59.049Z,93959.41
2022-09-23T11:04:37.430Z,93951.13
2022-09-23T11:07:23.767Z,93963.09
2022-09-23T11:10:18.389Z,93960.00
2022-09-23T11:13:01.451Z,93958.09
2022-09-23T11:16:05.511Z,93958.47
2022-09-23T11:18:47.730Z,93955.44
2022-09-23T11:21:33.848Z,93947.66
2022-09-23T11:24:22.578Z,93937.66
2022-09-23T11:27:11.350Z,93912.31
2022-09-23T11:29:53.469Z,93939.94
2022-09-23T11:32:44.419Z,93941.69
2022-09-23T11:35:33.975Z,93930.00
2022-09-23T11:38:11.981Z,93931.63
2022-09-23T11:40:45.501Z,93930.31
2022-09-23T11:43:23.602Z,93929.66
2022-09-23T11:46:35.971Z,93940.00
2022-09-23T11:49:15.509Z,93914.75
2022-09-23T11:52:27.398Z,93931.72
2022-09-23T11:55:08.354Z,93925.97
2022-09-23T11:57:53.543Z,93905.50
2022-09-23T12:00:36.039Z,93895.09
2022-09-23T12:03:18.931Z,93919.44
2022-09-23T12:06:01.363Z,93914.47
2022-09-23T12:08:30.683Z,93914.00
2022-09-23T12:11:26.806Z,93907.47
2022-09-23T12:14:21.459Z,93917.47
2022-09-23T12:17:29.779Z,93914.69
2022-09-23T12:20:18.896Z,93893.41
2022-09-23T12:23:19.420Z,93908.78
2022-09-23T12:26:00.669Z,93907.94
2022-09-23T12:28:37.569Z,93882.94
2022-09-23T12:31:10.016Z,93858.09
2022-09-23T12:33:38.649Z,93871.69
2022-09-23T12:36:08.349Z,93848.41
2022-09-23T12:38:54.210Z,93840.13
2022-09-23T12:41:25.961Z,93872.44
2022-09-23T12:43:59.934Z,93864.06
2022-09-23T12:46:27.474Z,93854.00
2022-09-23T12:48:57.312Z,93879.63
2022-09-23T12:51:48.072Z,93867.53
2022-09-23T12:54:22.788Z,93877.25
2022-09-23T12:57:13.786Z,93884.28
2022-09-23T12:59:54.193Z,93888.13
2022-09-23T13:03:08.587Z,93876.84
2022-09-23T13:06:01.835Z,93852.91
2022-09-23T13:08:28.955Z,93834.34
2022-09-23T13:11:00.253Z,93869.41
2022-09-23T13:13:36.002Z,93863.38
2022-09-23T13:16:25.831Z,93856.13
2022-09-23T13:19:05.233Z,93857.72
2022-09-23T13:21:45.737Z,93853.72
2022-09-23T13:24:42.980Z,93844.47
2022-09-23T13:27:21.187Z,93847.03
2022-09-23T13:30:00.031Z,93845.31
2022-09-23T13:32:34.249Z,93825.06
2022-09-23T13:35:02.494Z,93815.97
2022-09-23T13:37:37.908Z,93830.53
2022-09-23T13:40:19.694Z,93786.41
2022-09-23T13:42:51.339Z,93795.22
2022-09-23T13:45:23.516Z,93780.91
2022-09-23T13:47:51.476Z,93765.09
2022-09-23T13:50:21.059Z,93749.22
2022-09-23T13:53:05.725Z,93834.72
2022-09-23T13:55:38.785Z,93704.81
2022-09-23T13:58:17.308Z,93788.94
2022-09-23T14:00:44.296Z,93712.88
2022-09-23T14:03:38.411Z,93806.66
2022-09-23T14:06:09.649Z,93770.53
2022-09-23T14:08:46.043Z,93776.19
2022-09-23T14:11:19.925Z,93800.00
2022-09-23T14:13:48.776Z,93752.59
2022-09-23T14:16:16.232Z,93755.66
2022-09-23T14:18:51.095Z,93803.97
2022-09-23T14:21:27.479Z,93733.16
2022-09-23T14:23:54.228Z,93796.06
2022-09-23T14:26:21.552Z,93769.72
2022-09-23T14:28:48.429Z,93731.88
2022-09-23T14:31:15.211Z,93785.78
2022-09-23T14:33:42.618Z,93793.88
2022-09-23T14:36:34.277Z,93773.34
2022-09-23T14:39:04.222Z,93766.69
2022-09-23T14:41:37.067Z,93767.13
2022-09-23T14:44:07.965Z,93765.50
2022-09-23T14:46:57.258Z,93756.78
2022-09-23T14:49:27.663Z,93769.81
2022-09-23T14:51:56.974Z,93779.81
2022-09-23T14:54:28.116Z,93763.22
2022-09-23T14:56:55.036Z,93765.75
2022-09-23T14:59:35.578Z,93782.00
2022-09-23T15:02:24.200Z,93770.97
2022-09-23T15:04:50.566Z,93750.38
2022-09-23T15:07:20.328Z,93772.47
2022-09-23T15:09:46.833Z,93758.72
2022-09-23T15:12:15.834Z,93763.47
2022-09-23T15:14:50.708Z,93751.72
2022-09-23T15:17:30.136Z,93786.41
2022-09-23T15:20:00.726Z,93747.19
2022-09-23T15:22:27.405Z,93777.03
2022-09-23T15:25:07.913Z,93743.19
2022-09-23T15:27:35.240Z,93758.63
2022-09-23T15:30:15.156Z,93738.69
2022-09-23T15:32:43.354Z,93770.03
2022-09-23T15:35:20.957Z,93775.81
2022-09-23T15:37:49.894Z,93772.22
2022-09-23T15:40:24.127Z,93743.28
2022-09-23T15:42:55.390Z,93754.34
2022-09-23T15:45:34.006Z,93749.75
2022-09-23T15:48:10.642Z,93769.53
2022-09-23T15:50:47.010Z,93746.66
2022-09-23T15:53:19.847Z,93756.13
2022-09-23T15:55:46.470Z,93744.47
2022-09-23T15:58:12.864Z,93755.16
2022-09-23T16:00:39.457Z,93731.88
2022-09-23T16:03:06.615Z,93716.53
2022-09-23T16:05:37.902Z,93737.56
2022-09-23T16:08:09.204Z,93727.53
2022-09-23T16:10:37.357Z,93759.59
2022-09-23T16:13:06.345Z,93723.00
2022-09-23T16:15:35.898Z,93725.28
2022-09-23T16:18:02.253Z,93710.22
2022-09-23T16:20:42.195Z,93733.44
2022-09-23T16:23:20.621Z,93758.22
2022-09-23T16:25:46.984Z,93733.78
2022-09-23T16:28:13.413Z,93722.69
2022-09-23T16:30:40.787Z,93749.50
2022-09-23T16:33:09.221Z,93742.94
2022-09-23T16:35:37.325Z,93723.59
2022-09-23T16:38:05.161Z,93733.47
2022-09-23T16:40:32.541Z,93746.25
2022-09-23T16:43:02.095Z,93731.06
2022-09-23T16:45:28.763Z,93741.66
2022-09-23T16:47:55.207Z,93736.19
2022-09-23T16:50:24.689Z,93737.13
2022-09-23T16:53:04.522Z,93748.38
2022-09-23T16:55:31.902Z,93738.97
2022-09-23T16:57:59.293Z,93738.81
2022-09-23T17:00:50.536Z,93739.97
2022-09-23T17:03:41.888Z,93743.44
2022-09-23T17:06:12.953Z,93760.19
2022-09-23T17:08:40.866Z,93762.72
2022-09-23T17:11:08.062Z,93759.72
2022-09-23T17:13:37.233Z,93725.88
2022-09-23T17:16:03.831Z,93723.56
2022-09-23T17:18:30.327Z,93727.19
2022-09-23T17:21:02.318Z,93743.69
2022-09-23T17:23:31.401Z,93751.81
2022-09-23T17:25:59.333Z,93771.16
2022-09-23T17:28:26.060Z,93731.44
2022-09-23T17:31:00.596Z,93734.53
2022-09-23T17:33:30.556Z,93749.59
2022-09-23T17:35:58.523Z,93749.72
2022-09-23T17:38:28.820Z,93700.53
2022-09-23T17:41:01.121Z,93684.53
2022-09-23T17:43:29.107Z,93771.41
2022-09-23T17:46:00.867Z,93754.56
2022-09-23T17:48:27.511Z,93746.69
2022-09-23T17:50:58.015Z,93654.13
2022-09-23T17:53:35.803Z,93781.75
2022-09-23T17:56:08.058Z,93735.72
2022-09-23T17:58:36.644Z,93747.31
2022-09-23T18:01:08.408Z,93773.38
2022-09-23T18:03:34.880Z,93741.50
2022-09-23T18:06:09.138Z,93746.75
2022-09-23T18:08:35.699Z,93771.47
2022-09-23T18:11:14.445Z,93764.41
2022-09-23T18:13:41.828Z,93725.84
2022-09-23T18:16:08.408Z,93739.53
2022-09-23T18:18:34.838Z,93749.88
2022-09-23T18:21:02.737Z,93757.75
2022-09-23T18:23:31.157Z,93743.44
2022-09-23T18:26:01.593Z,93738.69
2022-09-23T18:28:34.661Z,93727.78
2022-09-23T18:31:01.466Z,93748.31
2022-09-23T18:33:27.823Z,93725.06
2022-09-23T18:35:54.424Z,93738.44
2022-09-23T18:38:21.053Z,93773.75
2022-09-23T18:40:56.773Z,93750.22
2022-09-23T18:43:25.821Z,93736.69
2022-09-23T18:46:00.260Z,93744.78
2022-09-23T18:48:46.783Z,93778.47
2022-09-23T18:51:14.298Z,93767.59
2022-09-23T18:53:43.469Z,93768.44
2022-09-23T18:56:13.345Z,93756.00
2022-09-23T18:58:39.709Z,93755.69
2022-09-23T19:01:08.990Z,93789.47
2022-09-23T19:03:36.439Z,93713.38
2022-09-23T19:06:11.182Z,93744.00
2022-09-23T19:08:38.047Z,93768.19
2022-09-23T19:11:08.439Z,93742.91
2022-09-23T19:13:35.519Z,93734.13
2022-09-23T19:16:11.273Z,93735.38
2022-09-23T19:18:39.215Z,93745.75
2022-09-23T19:21:08.010Z,93766.88
2022-09-23T19:23:35.033Z,93737.78
2022-09-23T19:26:13.510Z,93763.50
2022-09-23T19:28:40.335Z,93759.47
2022-09-23T19:31:16.841Z,93733.78
2022-09-23T19:33:46.270Z,93766.97
2022-09-23T19:36:16.233Z,93728.09
2022-09-23T19:38:44.318Z,93720.44
2022-09-23T19:41:11.178Z,93720.09
2022-09-23T19:43:37.671Z,93716.91
2022-09-23T19:46:06.732Z,93698.03
2022-09-23T19:48:34.134Z,93716.91
2022-09-23T19:51:02.587Z,93732.34
2022-09-23T19:53:29.115Z,93681.09
2022-09-23T19:56:03.186Z,93719.31
2022-09-23T19:58:29.555Z,93742.97
2022-09-23T20:00:56.552Z,93733.31
2022-09-23T20:03:23.226Z,93711.03
2022-09-23T20:05:56.883Z,93728.56
2022-09-23T20:08:24.165Z,93754.72
2022-09-23T20:10:51.590Z,93713.66
2022-09-23T20:13:17.964Z,93714.47
2022-09-23T20:15:48.353Z,93731.75
2022-09-23T20:18:14.882Z,93749.06
2022-09-23T20:20:41.967Z,93718.09
2022-09-23T20:23:08.334Z,93716.50
2022-09-23T20:25:55.294Z,93713.28
2022-09-23T20:28:22.439Z,93748.69
2022-09-23T20:30:48.906Z,93746.28
2022-09-23T20:33:15.594Z,93710.13
2022-09-23T20:35:43.974Z,93725.38
2022-09-23T20:38:10.521Z,93703.25
2022-09-23T20:40:38.495Z,93716.88
2022-09-23T20:43:05.124Z,93673.72
2022-09-23T20:45:31.609Z,93649.38
2022-09-23T20:48:01.038Z,93726.13
2022-09-23T20:50:27.458Z,93683.53
2022-09-23T20:52:53.816Z,93683.31
2022-09-23T20:55:20.269Z,93698.75
2022-09-23T20:57:48.469Z,93720.03
2022-09-23T21:00:15.535Z,93675.84
2022-09-23T21:02:43.534Z,93713.38
2022-09-23T21:05:10.484Z,93696.06
2022-09-23T21:07:37.496Z,93612.28
2022-09-23T21:10:06.860Z,93702.31
2022-09-23T21:12:33.230Z,93687.03
2022-09-23T21:14:59.599Z,93689.75
2022-09-23T21:17:26.832Z,93692.47
2022-09-23T21:19:53.196Z,93689.28
2022-09-23T21:22:19.544Z,93666.38
2022-09-23T21:25:25.699Z,93695.72
2022-09-23T21:27:32.252Z,93690.06
2022-09-23T21:29:59.112Z,93673.16
2022-09-23T21:32:25.464Z,93682.38
2022-09-23T21:34:52.575Z,93671.63
2022-09-23T21:37:18.926Z,93641.19
2022-09-23T21:40:05.382Z,93671.28
2022-09-23T21:42:31.812Z,93690.97
2022-09-23T21:44:58.260Z,93692.59
2022-09-23T21:47:25.322Z,93675.31
2022-09-23T21:49:51.841Z,93665.44
2022-09-23T21:52:18.196Z,93674.88
2022-09-23T21:54:44.564Z,93672.88
2022-09-23T21:57:12.265Z,93704.91
2022-09-23T21:59:38.723Z,93657.88
2022-09-23T22:02:05.082Z,93666.16
2022-09-23T22:04:32.241Z,93652.88
2022-09-23T22:07:00.496Z,93681.44
2022-09-23T22:09:26.959Z,93659.94
2022-09-23T22:12:07.482Z,93601.94
2022-09-23T22:14:33.981Z,93662.56
2022-09-23T22:17:03.650Z,93680.66
2022-09-23T22:19:34.998Z,93708.78
2022-09-23T22:22:06.582Z,93707.72
2022-09-23T22:24:32.955Z,93677.81
2022-09-23T22:26:59.322Z,93613.38
2022-09-23T22:29:44.448Z,93675.44
2022-09-23T22:32:30.254Z,93698.84
2022-09-23T22:34:56.901Z,93677.41
2022-09-23T22:37:30.324Z,93701.53
2022-09-23T22:39:56.813Z,93661.69
2022-09-23T22:42:23.230Z,93668.38
2022-09-23T22:44:50.525Z,93699.72
2022-09-23T22:47:17.924Z,93653.28
2022-09-23T22:49:44.373Z,93664.91
2022-09-23T22:52:11.239Z,93674.41
2022-09-23T22:54:37.659Z,93661.22
2022-09-23T22:57:05.789Z,93705.81
2022-09-23T22:59:32.575Z,93646.25
2022-09-23T23:02:00.103Z,93700.47
2022-09-23T23:04:26.986Z,93683.41
2022-09-23T23:06:54.396Z,93688.22
2022-09-23T23:09:20.789Z,93673.38
2022-09-23T23:11:47.444Z,93672.59
2022-09-23T23:14:16.907Z,93694.66
2022-09-23T23:16:45.132Z,93660.16
2022-09-23T23:19:16.453Z,93677.41
2022-09-23T23:21:43.584Z,93653.69
2022-09-23T23:24:18.335Z,93684.19
2022-09-23T23:26:45.230Z,93657.75
2022-09-23T23:29:13.689Z,93642.88
2022-09-23T23:31:41.088Z,93697.13
2022-09-23T23:34:18.007Z,93693.16
2022-09-23T23:36:45.759Z,93668.84
2022-09-23T23:39:13.444Z,93679.94
2022-09-23T23:41:41.513Z,93665.06
2022-09-23T23:44:08.579Z,93673.47
2022-09-23T23:46:36.986Z,93690.97
2022-09-23T23:49:03.914Z,93649.38
2022-09-23T23:51:30.911Z,93658.19
2022-09-23T23:53:58.987Z,93659.81
2022-09-23T23:56:26.449Z,93678.25
2022-09-23T23:58:57.478Z,93631.91
